sensor_id;sensor_type;location;lat;lon;timestamp;P1;durP1;ratioP1;P2;durP2;ratioP2
20144;SDS011;10233;50.814;6.590;2022-07-30T00:00:04;4.70;;;3.65;;
20144;SDS011;10233;50.814;6.590;2022-07-30T00:01:06;5.78;;;3.63;;
20144;SDS011;10233;50.814;6.590;2022-07-30T00:02:06;7.33;;;3.67;;
20144;SDS011;10233;50.814;6.590;2022-07-30T00:03:07;10.07;;;3.53;;
20144;SDS011;10233;50.814;6.590;2022-07-30T00:04:07;7.23;;;3.60;;
20144;SDS011;10233;50.814;6.590;2022-07-30T00:05:08;7.57;;;3.73;;
20144;SDS011;10233;50.814;6.590;2022-07-30T00:06:09;7.28;;;3.50;;
20144;SDS011;10233;50.814;6.590;2022-07-30T00:07:09;7.35;;;3.67;;
20144;SDS011;10233;50.814;6.590;2022-07-30T00:08:10;8.43;;;3.93;;
20144;SDS011;10233;50.814;6.590;2022-07-30T00:09:10;4.85;;;3.50;;
20144;SDS011;10233;50.814;6.590;2022-07-30T00:10:11;5.90;;;3.40;;
20144;SDS011;10233;50.814;6.590;2022-07-30T00:11:12;5.38;;;3.75;;
20144;SDS011;10233;50.814;6.590;2022-07-30T00:12:12;6.63;;;3.70;;
20144;SDS011;10233;50.814;6.590;2022-07-30T00:13:13;6.82;;;3.47;;
20144;SDS011;10233;50.814;6.590;2022-07-30T00:14:14;5.97;;;3.67;;
20144;SDS011;10233;50.814;6.590;2022-07-30T00:15:15;5.85;;;3.47;;
20144;SDS011;10233;50.814;6.590;2022-07-30T00:16:15;6.63;;;3.80;;
20144;SDS011;10233;50.814;6.590;2022-07-30T00:17:16;4.90;;;3.40;;
20144;SDS011;10233;50.814;6.590;2022-07-30T00:18:16;5.17;;;3.80;;
20144;SDS011;10233;50.814;6.590;2022-07-30T00:19:17;7.68;;;4.30;;
20144;SDS011;10233;50.814;6.590;2022-07-30T00:20:17;5.53;;;3.43;;
20144;SDS011;10233;50.814;6.590;2022-07-30T00:21:18;4.40;;;3.77;;
20144;SDS011;10233;50.814;6.590;2022-07-30T00:22:18;7.32;;;3.95;;
20144;SDS011;10233;50.814;6.590;2022-07-30T00:23:19;6.70;;;3.90;;
20144;SDS011;10233;50.814;6.590;2022-07-30T00:24:20;6.77;;;3.63;;
20144;SDS011;10233;50.814;6.590;2022-07-30T00:25:21;5.20;;;4.13;;
20144;SDS011;10233;50.814;6.590;2022-07-30T00:26:21;4.43;;;3.50;;
20144;SDS011;10233;50.814;6.590;2022-07-30T00:27:22;6.80;;;4.10;;
20144;SDS011;10233;50.814;6.590;2022-07-30T00:28:22;6.83;;;4.20;;
20144;SDS011;10233;50.814;6.590;2022-07-30T00:29:23;7.20;;;3.90;;
20144;SDS011;10233;50.814;6.590;2022-07-30T00:30:24;6.47;;;4.00;;
20144;SDS011;10233;50.814;6.590;2022-07-30T00:31:25;6.47;;;4.40;;
20144;SDS011;10233;50.814;6.590;2022-07-30T00:32:25;6.70;;;4.55;;
20144;SDS011;10233;50.814;6.590;2022-07-30T00:33:26;8.53;;;4.37;;
20144;SDS011;10233;50.814;6.590;2022-07-30T00:34:26;6.20;;;4.30;;
20144;SDS011;10233;50.814;6.590;2022-07-30T00:35:27;8.55;;;4.10;;
20144;SDS011;10233;50.814;6.590;2022-07-30T00:36:28;7.97;;;4.10;;
20144;SDS011;10233;50.814;6.590;2022-07-30T00:37:28;5.95;;;4.13;;
20144;SDS011;10233;50.814;6.590;2022-07-30T00:38:29;6.60;;;4.30;;
20144;SDS011;10233;50.814;6.590;2022-07-30T00:39:29;6.30;;;4.25;;
20144;SDS011;10233;50.814;6.590;2022-07-30T00:40:30;5.93;;;4.17;;
20144;SDS011;10233;50.814;6.590;2022-07-30T00:41:30;7.00;;;4.33;;
20144;SDS011;10233;50.814;6.590;2022-07-30T00:42:38;9.00;;;3.85;;
20144;SDS011;10233;50.814;6.590;2022-07-30T00:43:42;7.00;;;3.97;;
20144;SDS011;10233;50.814;6.590;2022-07-30T00:44:43;7.53;;;4.20;;
20144;SDS011;10233;50.814;6.590;2022-07-30T00:45:43;6.10;;;3.83;;
20144;SDS011;10233;50.814;6.590;2022-07-30T00:46:44;5.72;;;3.92;;
20144;SDS011;10233;50.814;6.590;2022-07-30T00:47:45;7.17;;;4.10;;
20144;SDS011;10233;50.814;6.590;2022-07-30T00:48:45;9.95;;;3.97;;
20144;SDS011;10233;50.814;6.590;2022-07-30T00:49:46;7.63;;;4.07;;
20144;SDS011;10233;50.814;6.590;2022-07-30T00:50:49;6.13;;;3.60;;
20144;SDS011;10233;50.814;6.590;2022-07-30T00:51:50;7.97;;;3.90;;
20144;SDS011;10233;50.814;6.590;2022-07-30T00:52:51;5.35;;;4.00;;
20144;SDS011;10233;50.814;6.590;2022-07-30T00:53:52;8.25;;;3.80;;
20144;SDS011;10233;50.814;6.590;2022-07-30T00:54:52;10.05;;;4.35;;
20144;SDS011;10233;50.814;6.590;2022-07-30T00:55:53;6.20;;;4.17;;
20144;SDS011;10233;50.814;6.590;2022-07-30T00:56:53;5.32;;;3.67;;
20144;SDS011;10233;50.814;6.590;2022-07-30T00:57:54;6.87;;;4.00;;
20144;SDS011;10233;50.814;6.590;2022-07-30T00:58:54;5.60;;;3.87;;
20144;SDS011;10233;50.814;6.590;2022-07-30T00:59:55;7.65;;;4.13;;
20144;SDS011;10233;50.814;6.590;2022-07-30T01:00:56;10.47;;;4.33;;
20144;SDS011;10233;50.814;6.590;2022-07-30T01:01:57;6.30;;;3.80;;
20144;SDS011;10233;50.814;6.590;2022-07-30T01:03:00;5.88;;;4.07;;
20144;SDS011;10233;50.814;6.590;2022-07-30T01:04:01;7.60;;;4.07;;
20144;SDS011;10233;50.814;6.590;2022-07-30T01:05:02;6.35;;;3.90;;
20144;SDS011;10233;50.814;6.590;2022-07-30T01:06:03;7.30;;;4.50;;
20144;SDS011;10233;50.814;6.590;2022-07-30T01:07:04;7.47;;;4.30;;
20144;SDS011;10233;50.814;6.590;2022-07-30T01:08:05;7.53;;;3.95;;
20144;SDS011;10233;50.814;6.590;2022-07-30T01:09:05;7.03;;;4.03;;
20144;SDS011;10233;50.814;6.590;2022-07-30T01:10:07;9.40;;;4.32;;
20144;SDS011;10233;50.814;6.590;2022-07-30T01:11:09;6.47;;;4.70;;
20144;SDS011;10233;50.814;6.590;2022-07-30T01:12:16;6.90;;;4.20;;
20144;SDS011;10233;50.814;6.590;2022-07-30T01:13:20;6.35;;;3.65;;
20144;SDS011;10233;50.814;6.590;2022-07-30T01:14:21;7.97;;;4.03;;
20144;SDS011;10233;50.814;6.590;2022-07-30T01:15:22;10.38;;;4.00;;
20144;SDS011;10233;50.814;6.590;2022-07-30T01:16:22;8.07;;;3.83;;
20144;SDS011;10233;50.814;6.590;2022-07-30T01:17:23;6.70;;;4.00;;
20144;SDS011;10233;50.814;6.590;2022-07-30T01:18:24;7.32;;;4.00;;
20144;SDS011;10233;50.814;6.590;2022-07-30T01:19:48;5.03;;;3.60;;
20144;SDS011;10233;50.814;6.590;2022-07-30T01:21:04;7.13;;;4.20;;
20144;SDS011;10233;50.814;6.590;2022-07-30T01:22:15;5.75;;;3.70;;
20144;SDS011;10233;50.814;6.590;2022-07-30T01:23:35;7.65;;;3.83;;
20144;SDS011;10233;50.814;6.590;2022-07-30T01:26:30;5.47;;;4.00;;
20144;SDS011;10233;50.814;6.590;2022-07-30T01:27:39;6.25;;;3.97;;
20144;SDS011;10233;50.814;6.590;2022-07-30T01:28:45;6.85;;;3.70;;
20144;SDS011;10233;50.814;6.590;2022-07-30T01:29:51;7.75;;;4.10;;
20144;SDS011;10233;50.814;6.590;2022-07-30T01:30:54;6.07;;;4.00;;
20144;SDS011;10233;50.814;6.590;2022-07-30T01:31:56;6.63;;;3.80;;
20144;SDS011;10233;50.814;6.590;2022-07-30T01:33:00;5.55;;;3.92;;
20144;SDS011;10233;50.814;6.590;2022-07-30T01:34:02;6.22;;;4.07;;
20144;SDS011;10233;50.814;6.590;2022-07-30T01:35:04;7.28;;;3.80;;
20144;SDS011;10233;50.814;6.590;2022-07-30T01:36:11;7.68;;;4.15;;
20144;SDS011;10233;50.814;6.590;2022-07-30T01:37:14;6.53;;;3.97;;
20144;SDS011;10233;50.814;6.590;2022-07-30T01:38:16;5.53;;;4.15;;
20144;SDS011;10233;50.814;6.590;2022-07-30T01:39:21;8.75;;;4.20;;
20144;SDS011;10233;50.814;6.590;2022-07-30T01:40:24;6.32;;;3.95;;
20144;SDS011;10233;50.814;6.590;2022-07-30T01:41:26;6.57;;;4.10;;
20144;SDS011;10233;50.814;6.590;2022-07-30T01:42:28;8.27;;;4.07;;
20144;SDS011;10233;50.814;6.590;2022-07-30T01:43:29;5.88;;;3.63;;
20144;SDS011;10233;50.814;6.590;2022-07-30T01:44:32;7.50;;;3.42;;
20144;SDS011;10233;50.814;6.590;2022-07-30T01:45:33;6.63;;;3.80;;
20144;SDS011;10233;50.814;6.590;2022-07-30T01:46:35;7.78;;;3.97;;
20144;SDS011;10233;50.814;6.590;2022-07-30T01:47:37;6.20;;;3.83;;
20144;SDS011;10233;50.814;6.590;2022-07-30T01:48:39;8.07;;;4.22;;
20144;SDS011;10233;50.814;6.590;2022-07-30T01:49:44;7.88;;;4.30;;
20144;SDS011;10233;50.814;6.590;2022-07-30T01:50:48;8.20;;;4.45;;
20144;SDS011;10233;50.814;6.590;2022-07-30T01:51:52;6.00;;;3.92;;
20144;SDS011;10233;50.814;6.590;2022-07-30T01:52:54;6.00;;;3.88;;
20144;SDS011;10233;50.814;6.590;2022-07-30T01:53:56;7.80;;;4.05;;
20144;SDS011;10233;50.814;6.590;2022-07-30T01:54:58;6.57;;;3.97;;
20144;SDS011;10233;50.814;6.590;2022-07-30T01:56:01;7.37;;;4.10;;
20144;SDS011;10233;50.814;6.590;2022-07-30T01:57:03;7.40;;;4.70;;
20144;SDS011;10233;50.814;6.590;2022-07-30T01:58:05;7.47;;;4.30;;
20144;SDS011;10233;50.814;6.590;2022-07-30T01:59:11;6.55;;;3.88;;
20144;SDS011;10233;50.814;6.590;2022-07-30T02:00:15;8.57;;;4.13;;
20144;SDS011;10233;50.814;6.590;2022-07-30T02:01:16;5.68;;;4.10;;
20144;SDS011;10233;50.814;6.590;2022-07-30T02:02:17;9.37;;;4.37;;
20144;SDS011;10233;50.814;6.590;2022-07-30T02:03:18;9.85;;;4.28;;
20144;SDS011;10233;50.814;6.590;2022-07-30T02:04:19;4.97;;;4.03;;
20144;SDS011;10233;50.814;6.590;2022-07-30T02:05:19;5.85;;;3.63;;
20144;SDS011;10233;50.814;6.590;2022-07-30T02:06:21;8.10;;;4.50;;
20144;SDS011;10233;50.814;6.590;2022-07-30T02:07:39;5.93;;;4.10;;
20144;SDS011;10233;50.814;6.590;2022-07-30T02:08:54;4.72;;;3.53;;
20144;SDS011;10233;50.814;6.590;2022-07-30T02:10:04;5.78;;;4.00;;
20144;SDS011;10233;50.814;6.590;2022-07-30T02:11:15;6.80;;;3.70;;
20144;SDS011;10233;50.814;6.590;2022-07-30T02:12:35;5.70;;;3.80;;
20144;SDS011;10233;50.814;6.590;2022-07-30T02:13:52;10.52;;;4.43;;
20144;SDS011;10233;50.814;6.590;2022-07-30T02:15:14;5.53;;;4.00;;
20144;SDS011;10233;50.814;6.590;2022-07-30T02:16:26;7.40;;;4.13;;
20144;SDS011;10233;50.814;6.590;2022-07-30T02:17:31;7.60;;;4.45;;
20144;SDS011;10233;50.814;6.590;2022-07-30T02:19:02;6.38;;;3.90;;
20144;SDS011;10233;50.814;6.590;2022-07-30T02:20:11;10.73;;;4.20;;
20144;SDS011;10233;50.814;6.590;2022-07-30T02:21:14;6.07;;;4.10;;
20144;SDS011;10233;50.814;6.590;2022-07-30T02:22:18;6.10;;;3.85;;
20144;SDS011;10233;50.814;6.590;2022-07-30T02:23:22;8.53;;;4.50;;
20144;SDS011;10233;50.814;6.590;2022-07-30T02:24:26;7.90;;;3.95;;
20144;SDS011;10233;50.814;6.590;2022-07-30T02:25:31;5.80;;;3.70;;
20144;SDS011;10233;50.814;6.590;2022-07-30T02:26:34;6.07;;;3.70;;
20144;SDS011;10233;50.814;6.590;2022-07-30T02:27:38;7.30;;;4.00;;
20144;SDS011;10233;50.814;6.590;2022-07-30T02:28:42;6.35;;;4.00;;
20144;SDS011;10233;50.814;6.590;2022-07-30T02:29:46;6.00;;;3.78;;
20144;SDS011;10233;50.814;6.590;2022-07-30T02:30:50;7.47;;;3.97;;
20144;SDS011;10233;50.814;6.590;2022-07-30T02:31:54;5.60;;;4.10;;
20144;SDS011;10233;50.814;6.590;2022-07-30T02:32:58;6.20;;;3.85;;
20144;SDS011;10233;50.814;6.590;2022-07-30T02:34:04;8.18;;;3.97;;
20144;SDS011;10233;50.814;6.590;2022-07-30T02:35:07;5.75;;;3.75;;
20144;SDS011;10233;50.814;6.590;2022-07-30T02:36:13;6.95;;;4.03;;
20144;SDS011;10233;50.814;6.590;2022-07-30T02:37:17;8.50;;;4.25;;
20144;SDS011;10233;50.814;6.590;2022-07-30T02:38:22;7.03;;;4.07;;
20144;SDS011;10233;50.814;6.590;2022-07-30T02:39:26;5.63;;;4.30;;
20144;SDS011;10233;50.814;6.590;2022-07-30T02:40:30;7.93;;;4.20;;
20144;SDS011;10233;50.814;6.590;2022-07-30T02:41:32;9.57;;;4.05;;
20144;SDS011;10233;50.814;6.590;2022-07-30T02:42:38;5.72;;;3.60;;
20144;SDS011;10233;50.814;6.590;2022-07-30T02:43:40;6.85;;;4.00;;
20144;SDS011;10233;50.814;6.590;2022-07-30T02:44:43;6.57;;;3.80;;
20144;SDS011;10233;50.814;6.590;2022-07-30T02:45:48;8.38;;;3.97;;
20144;SDS011;10233;50.814;6.590;2022-07-30T02:46:48;6.57;;;3.92;;
20144;SDS011;10233;50.814;6.590;2022-07-30T02:48:04;5.65;;;3.90;;
20144;SDS011;10233;50.814;6.590;2022-07-30T02:49:11;6.50;;;4.03;;
20144;SDS011;10233;50.814;6.590;2022-07-30T02:50:14;8.65;;;3.88;;
20144;SDS011;10233;50.814;6.590;2022-07-30T02:51:18;5.37;;;3.47;;
20144;SDS011;10233;50.814;6.590;2022-07-30T02:52:21;6.05;;;3.80;;
20144;SDS011;10233;50.814;6.590;2022-07-30T02:53:24;7.63;;;4.38;;
20144;SDS011;10233;50.814;6.590;2022-07-30T02:54:28;5.53;;;3.80;;
20144;SDS011;10233;50.814;6.590;2022-07-30T02:55:31;8.23;;;4.50;;
20144;SDS011;10233;50.814;6.590;2022-07-30T02:56:34;5.25;;;3.60;;
20144;SDS011;10233;50.814;6.590;2022-07-30T02:57:36;7.28;;;4.07;;
20144;SDS011;10233;50.814;6.590;2022-07-30T02:58:38;9.00;;;4.32;;
20144;SDS011;10233;50.814;6.590;2022-07-30T02:59:40;9.23;;;4.20;;
20144;SDS011;10233;50.814;6.590;2022-07-30T03:00:46;7.13;;;4.20;;
20144;SDS011;10233;50.814;6.590;2022-07-30T03:01:48;7.30;;;4.07;;
20144;SDS011;10233;50.814;6.590;2022-07-30T03:02:50;6.88;;;3.97;;
20144;SDS011;10233;50.814;6.590;2022-07-30T03:03:52;8.05;;;3.85;;
20144;SDS011;10233;50.814;6.590;2022-07-30T03:04:54;6.35;;;3.72;;
20144;SDS011;10233;50.814;6.590;2022-07-30T03:05:56;6.72;;;3.80;;
20144;SDS011;10233;50.814;6.590;2022-07-30T03:06:58;7.22;;;4.03;;
20144;SDS011;10233;50.814;6.590;2022-07-30T03:08:00;6.88;;;3.63;;
20144;SDS011;10233;50.814;6.590;2022-07-30T03:09:02;6.47;;;4.15;;
20144;SDS011;10233;50.814;6.590;2022-07-30T03:10:04;8.13;;;4.10;;
20144;SDS011;10233;50.814;6.590;2022-07-30T03:11:06;6.05;;;3.90;;
20144;SDS011;10233;50.814;6.590;2022-07-30T03:12:09;8.73;;;4.70;;
20144;SDS011;10233;50.814;6.590;2022-07-30T03:13:13;10.73;;;4.50;;
20144;SDS011;10233;50.814;6.590;2022-07-30T03:14:15;7.18;;;4.10;;
20144;SDS011;10233;50.814;6.590;2022-07-30T03:15:15;6.60;;;4.10;;
20144;SDS011;10233;50.814;6.590;2022-07-30T03:16:17;6.60;;;3.78;;
20144;SDS011;10233;50.814;6.590;2022-07-30T03:17:21;7.28;;;4.93;;
20144;SDS011;10233;50.814;6.590;2022-07-30T03:18:24;8.57;;;4.65;;
20144;SDS011;10233;50.814;6.590;2022-07-30T03:19:32;11.90;;;4.70;;
20144;SDS011;10233;50.814;6.590;2022-07-30T03:20:36;6.20;;;4.18;;
20144;SDS011;10233;50.814;6.590;2022-07-30T03:21:37;7.50;;;4.30;;
20144;SDS011;10233;50.814;6.590;2022-07-30T03:22:41;8.32;;;4.28;;
20144;SDS011;10233;50.814;6.590;2022-07-30T03:23:46;6.80;;;4.38;;
20144;SDS011;10233;50.814;6.590;2022-07-30T03:24:48;8.50;;;4.10;;
20144;SDS011;10233;50.814;6.590;2022-07-30T03:25:59;9.90;;;4.65;;
20144;SDS011;10233;50.814;6.590;2022-07-30T03:27:01;5.75;;;4.15;;
20144;SDS011;10233;50.814;6.590;2022-07-30T03:28:03;8.07;;;4.45;;
20144;SDS011;10233;50.814;6.590;2022-07-30T03:29:06;8.77;;;4.60;;
20144;SDS011;10233;50.814;6.590;2022-07-30T03:30:08;8.93;;;4.72;;
20144;SDS011;10233;50.814;6.590;2022-07-30T03:31:09;7.15;;;4.15;;
20144;SDS011;10233;50.814;6.590;2022-07-30T03:32:10;9.20;;;4.82;;
20144;SDS011;10233;50.814;6.590;2022-07-30T03:33:12;7.95;;;3.80;;
20144;SDS011;10233;50.814;6.590;2022-07-30T03:34:14;8.45;;;4.30;;
20144;SDS011;10233;50.814;6.590;2022-07-30T03:35:16;6.50;;;4.00;;
20144;SDS011;10233;50.814;6.590;2022-07-30T03:36:19;8.00;;;4.70;;
20144;SDS011;10233;50.814;6.590;2022-07-30T03:37:20;11.38;;;4.63;;
20144;SDS011;10233;50.814;6.590;2022-07-30T03:38:21;9.32;;;4.68;;
20144;SDS011;10233;50.814;6.590;2022-07-30T03:39:23;7.82;;;4.30;;
20144;SDS011;10233;50.814;6.590;2022-07-30T03:40:24;7.45;;;4.63;;
20144;SDS011;10233;50.814;6.590;2022-07-30T03:41:25;6.80;;;4.05;;
20144;SDS011;10233;50.814;6.590;2022-07-30T03:42:27;7.68;;;4.60;;
20144;SDS011;10233;50.814;6.590;2022-07-30T03:43:28;7.17;;;4.30;;
20144;SDS011;10233;50.814;6.590;2022-07-30T03:44:30;7.67;;;4.37;;
20144;SDS011;10233;50.814;6.590;2022-07-30T03:45:33;11.45;;;4.28;;
20144;SDS011;10233;50.814;6.590;2022-07-30T03:46:39;7.93;;;4.90;;
20144;SDS011;10233;50.814;6.590;2022-07-30T03:47:42;9.55;;;4.70;;
20144;SDS011;10233;50.814;6.590;2022-07-30T03:48:48;6.90;;;4.38;;
20144;SDS011;10233;50.814;6.590;2022-07-30T03:49:52;8.77;;;4.28;;
20144;SDS011;10233;50.814;6.590;2022-07-30T03:50:53;10.07;;;4.83;;
20144;SDS011;10233;50.814;6.590;2022-07-30T03:51:55;6.78;;;4.45;;
20144;SDS011;10233;50.814;6.590;2022-07-30T03:52:56;7.85;;;4.22;;
20144;SDS011;10233;50.814;6.590;2022-07-30T03:53:59;7.93;;;4.35;;
20144;SDS011;10233;50.814;6.590;2022-07-30T03:55:06;8.07;;;4.85;;
20144;SDS011;10233;50.814;6.590;2022-07-30T03:56:11;6.95;;;4.68;;
20144;SDS011;10233;50.814;6.590;2022-07-30T03:57:27;9.40;;;4.65;;
20144;SDS011;10233;50.814;6.590;2022-07-30T03:58:29;9.63;;;4.60;;
20144;SDS011;10233;50.814;6.590;2022-07-30T03:59:30;9.20;;;5.17;;
20144;SDS011;10233;50.814;6.590;2022-07-30T04:00:30;11.95;;;5.00;;
20144;SDS011;10233;50.814;6.590;2022-07-30T04:01:31;6.22;;;4.43;;
20144;SDS011;10233;50.814;6.590;2022-07-30T04:02:41;7.95;;;5.20;;
20144;SDS011;10233;50.814;6.590;2022-07-30T04:04:05;6.97;;;4.63;;
20144;SDS011;10233;50.814;6.590;2022-07-30T04:05:13;8.75;;;5.03;;
20144;SDS011;10233;50.814;6.590;2022-07-30T04:06:14;8.48;;;4.97;;
20144;SDS011;10233;50.814;6.590;2022-07-30T04:07:14;8.23;;;4.60;;
20144;SDS011;10233;50.814;6.590;2022-07-30T04:08:18;7.28;;;4.40;;
20144;SDS011;10233;50.814;6.590;2022-07-30T04:09:18;11.40;;;4.80;;
20144;SDS011;10233;50.814;6.590;2022-07-30T04:10:20;7.55;;;4.82;;
20144;SDS011;10233;50.814;6.590;2022-07-30T04:11:33;11.67;;;5.27;;
20144;SDS011;10233;50.814;6.590;2022-07-30T04:12:38;7.40;;;5.07;;
20144;SDS011;10233;50.814;6.590;2022-07-30T04:13:39;8.57;;;4.93;;
20144;SDS011;10233;50.814;6.590;2022-07-30T04:14:40;12.45;;;5.18;;
20144;SDS011;10233;50.814;6.590;2022-07-30T04:15:46;8.82;;;4.40;;
20144;SDS011;10233;50.814;6.590;2022-07-30T04:16:55;10.13;;;4.85;;
20144;SDS011;10233;50.814;6.590;2022-07-30T04:18:01;10.20;;;5.40;;
20144;SDS011;10233;50.814;6.590;2022-07-30T04:19:06;8.35;;;5.30;;
20144;SDS011;10233;50.814;6.590;2022-07-30T04:20:16;11.07;;;5.03;;
20144;SDS011;10233;50.814;6.590;2022-07-30T04:21:22;9.77;;;5.40;;
20144;SDS011;10233;50.814;6.590;2022-07-30T04:22:27;8.05;;;5.22;;
20144;SDS011;10233;50.814;6.590;2022-07-30T04:23:33;10.02;;;5.72;;
20144;SDS011;10233;50.814;6.590;2022-07-30T04:24:33;13.20;;;5.73;;
20144;SDS011;10233;50.814;6.590;2022-07-30T04:25:36;12.45;;;5.53;;
20144;SDS011;10233;50.814;6.590;2022-07-30T04:26:37;10.27;;;5.63;;
20144;SDS011;10233;50.814;6.590;2022-07-30T04:27:38;8.13;;;5.85;;
20144;SDS011;10233;50.814;6.590;2022-07-30T04:28:39;9.70;;;5.75;;
20144;SDS011;10233;50.814;6.590;2022-07-30T04:29:41;9.10;;;6.03;;
20144;SDS011;10233;50.814;6.590;2022-07-30T04:30:42;11.52;;;5.85;;
20144;SDS011;10233;50.814;6.590;2022-07-30T04:31:43;9.77;;;5.70;;
20144;SDS011;10233;50.814;6.590;2022-07-30T04:33:06;8.70;;;5.28;;
20144;SDS011;10233;50.814;6.590;2022-07-30T04:34:33;8.32;;;5.18;;
20144;SDS011;10233;50.814;6.590;2022-07-30T04:35:34;14.93;;;5.30;;
20144;SDS011;10233;50.814;6.590;2022-07-30T04:36:58;8.55;;;5.40;;
20144;SDS011;10233;50.814;6.590;2022-07-30T04:37:58;13.10;;;6.00;;
20144;SDS011;10233;50.814;6.590;2022-07-30T04:39:02;8.63;;;5.55;;
20144;SDS011;10233;50.814;6.590;2022-07-30T04:40:03;10.27;;;5.47;;
20144;SDS011;10233;50.814;6.590;2022-07-30T04:41:04;7.93;;;5.70;;
20144;SDS011;10233;50.814;6.590;2022-07-30T04:42:23;12.45;;;5.38;;
20144;SDS011;10233;50.814;6.590;2022-07-30T04:43:34;10.90;;;6.15;;
20144;SDS011;10233;50.814;6.590;2022-07-30T04:44:36;9.95;;;6.07;;
20144;SDS011;10233;50.814;6.590;2022-07-30T04:46:09;10.63;;;5.47;;
20144;SDS011;10233;50.814;6.590;2022-07-30T04:47:10;10.75;;;5.95;;
20144;SDS011;10233;50.814;6.590;2022-07-30T04:48:23;10.25;;;6.30;;
20144;SDS011;10233;50.814;6.590;2022-07-30T04:49:41;14.10;;;6.20;;
20144;SDS011;10233;50.814;6.590;2022-07-30T04:50:44;9.05;;;5.63;;
20144;SDS011;10233;50.814;6.590;2022-07-30T04:51:50;12.38;;;6.25;;
20144;SDS011;10233;50.814;6.590;2022-07-30T04:52:55;9.48;;;5.90;;
20144;SDS011;10233;50.814;6.590;2022-07-30T04:54:02;12.00;;;6.13;;
20144;SDS011;10233;50.814;6.590;2022-07-30T04:55:06;10.52;;;6.53;;
20144;SDS011;10233;50.814;6.590;2022-07-30T04:56:10;9.25;;;6.38;;
20144;SDS011;10233;50.814;6.590;2022-07-30T04:57:13;12.70;;;6.70;;
20144;SDS011;10233;50.814;6.590;2022-07-30T04:58:17;11.13;;;6.47;;
20144;SDS011;10233;50.814;6.590;2022-07-30T04:59:20;9.57;;;5.90;;
20144;SDS011;10233;50.814;6.590;2022-07-30T05:00:24;9.68;;;6.10;;
20144;SDS011;10233;50.814;6.590;2022-07-30T05:01:26;13.52;;;6.45;;
20144;SDS011;10233;50.814;6.590;2022-07-30T05:02:33;10.13;;;6.50;;
20144;SDS011;10233;50.814;6.590;2022-07-30T05:03:39;13.13;;;6.50;;
20144;SDS011;10233;50.814;6.590;2022-07-30T05:04:40;11.70;;;6.65;;
20144;SDS011;10233;50.814;6.590;2022-07-30T05:05:41;11.02;;;6.07;;
20144;SDS011;10233;50.814;6.590;2022-07-30T05:06:44;11.05;;;6.25;;
20144;SDS011;10233;50.814;6.590;2022-07-30T05:07:48;10.02;;;6.32;;
20144;SDS011;10233;50.814;6.590;2022-07-30T05:08:49;10.00;;;6.47;;
20144;SDS011;10233;50.814;6.590;2022-07-30T05:09:52;12.55;;;6.78;;
20144;SDS011;10233;50.814;6.590;2022-07-30T05:10:54;9.60;;;6.45;;
20144;SDS011;10233;50.814;6.590;2022-07-30T05:11:55;14.25;;;6.50;;
20144;SDS011;10233;50.814;6.590;2022-07-30T05:12:57;13.00;;;6.13;;
20144;SDS011;10233;50.814;6.590;2022-07-30T05:13:58;12.90;;;6.20;;
20144;SDS011;10233;50.814;6.590;2022-07-30T05:14:58;10.43;;;6.90;;
20144;SDS011;10233;50.814;6.590;2022-07-30T05:15:59;10.65;;;6.30;;
20144;SDS011;10233;50.814;6.590;2022-07-30T05:16:59;10.17;;;6.43;;
20144;SDS011;10233;50.814;6.590;2022-07-30T05:18:01;12.02;;;6.75;;
20144;SDS011;10233;50.814;6.590;2022-07-30T05:19:03;12.27;;;6.60;;
20144;SDS011;10233;50.814;6.590;2022-07-30T05:20:04;12.00;;;6.40;;
20144;SDS011;10233;50.814;6.590;2022-07-30T05:21:21;13.07;;;6.63;;
20144;SDS011;10233;50.814;6.590;2022-07-30T05:22:22;10.57;;;6.50;;
20144;SDS011;10233;50.814;6.590;2022-07-30T05:23:24;13.15;;;6.57;;
20144;SDS011;10233;50.814;6.590;2022-07-30T05:24:45;11.65;;;7.00;;
20144;SDS011;10233;50.814;6.590;2022-07-30T05:25:49;13.55;;;6.90;;
20144;SDS011;10233;50.814;6.590;2022-07-30T05:27:01;12.70;;;6.57;;
20144;SDS011;10233;50.814;6.590;2022-07-30T05:28:01;11.70;;;6.60;;
20144;SDS011;10233;50.814;6.590;2022-07-30T05:29:02;14.80;;;6.80;;
20144;SDS011;10233;50.814;6.590;2022-07-30T05:30:16;13.57;;;6.65;;
20144;SDS011;10233;50.814;6.590;2022-07-30T05:31:21;10.60;;;6.88;;
20144;SDS011;10233;50.814;6.590;2022-07-30T05:32:29;11.57;;;6.75;;
20144;SDS011;10233;50.814;6.590;2022-07-30T05:33:30;12.35;;;6.80;;
20144;SDS011;10233;50.814;6.590;2022-07-30T05:34:31;10.88;;;6.45;;
20144;SDS011;10233;50.814;6.590;2022-07-30T05:35:33;14.68;;;7.13;;
20144;SDS011;10233;50.814;6.590;2022-07-30T05:36:33;13.83;;;7.23;;
20144;SDS011;10233;50.814;6.590;2022-07-30T05:37:34;13.55;;;7.13;;
20144;SDS011;10233;50.814;6.590;2022-07-30T05:38:35;12.20;;;6.73;;
20144;SDS011;10233;50.814;6.590;2022-07-30T05:39:55;13.48;;;7.40;;
20144;SDS011;10233;50.814;6.590;2022-07-30T05:41:23;11.73;;;6.85;;
20144;SDS011;10233;50.814;6.590;2022-07-30T05:42:50;13.00;;;7.50;;
20144;SDS011;10233;50.814;6.590;2022-07-30T05:43:51;11.03;;;7.17;;
20144;SDS011;10233;50.814;6.590;2022-07-30T05:44:53;15.77;;;8.27;;
20144;SDS011;10233;50.814;6.590;2022-07-30T05:45:53;12.53;;;7.47;;
20144;SDS011;10233;50.814;6.590;2022-07-30T05:46:54;12.70;;;7.40;;
20144;SDS011;10233;50.814;6.590;2022-07-30T05:47:54;12.27;;;7.57;;
20144;SDS011;10233;50.814;6.590;2022-07-30T05:48:56;14.50;;;7.90;;
20144;SDS011;10233;50.814;6.590;2022-07-30T05:49:58;14.85;;;7.85;;
20144;SDS011;10233;50.814;6.590;2022-07-30T05:50:58;11.63;;;7.67;;
20144;SDS011;10233;50.814;6.590;2022-07-30T05:51:58;11.57;;;7.47;;
20144;SDS011;10233;50.814;6.590;2022-07-30T05:52:59;15.27;;;8.00;;
20144;SDS011;10233;50.814;6.590;2022-07-30T05:54:37;13.85;;;7.20;;
20144;SDS011;10233;50.814;6.590;2022-07-30T05:55:57;14.02;;;7.80;;
20144;SDS011;10233;50.814;6.590;2022-07-30T05:57:16;13.93;;;8.20;;
20144;SDS011;10233;50.814;6.590;2022-07-30T05:58:17;19.07;;;8.63;;
20144;SDS011;10233;50.814;6.590;2022-07-30T05:59:18;15.13;;;8.77;;
20144;SDS011;10233;50.814;6.590;2022-07-30T06:00:42;14.27;;;8.50;;
20144;SDS011;10233;50.814;6.590;2022-07-30T06:01:43;16.97;;;8.27;;
20144;SDS011;10233;50.814;6.590;2022-07-30T06:02:50;16.70;;;9.48;;
20144;SDS011;10233;50.814;6.590;2022-07-30T06:04:17;17.85;;;9.82;;
20144;SDS011;10233;50.814;6.590;2022-07-30T06:05:21;15.27;;;9.00;;
20144;SDS011;10233;50.814;6.590;2022-07-30T06:06:22;19.33;;;9.00;;
20144;SDS011;10233;50.814;6.590;2022-07-30T06:07:23;19.38;;;9.10;;
20144;SDS011;10233;50.814;6.590;2022-07-30T06:08:25;17.00;;;8.40;;
20144;SDS011;10233;50.814;6.590;2022-07-30T06:09:25;18.77;;;8.55;;
20144;SDS011;10233;50.814;6.590;2022-07-30T06:10:26;14.30;;;7.57;;
20144;SDS011;10233;50.814;6.590;2022-07-30T06:11:27;19.25;;;8.25;;
20144;SDS011;10233;50.814;6.590;2022-07-30T06:12:28;14.98;;;8.55;;
20144;SDS011;10233;50.814;6.590;2022-07-30T06:13:29;16.60;;;8.98;;
20144;SDS011;10233;50.814;6.590;2022-07-30T06:14:30;16.80;;;9.10;;
20144;SDS011;10233;50.814;6.590;2022-07-30T06:15:31;20.45;;;9.63;;
20144;SDS011;10233;50.814;6.590;2022-07-30T06:16:33;18.05;;;9.52;;
20144;SDS011;10233;50.814;6.590;2022-07-30T06:17:34;17.37;;;9.57;;
20144;SDS011;10233;50.814;6.590;2022-07-30T06:18:47;15.32;;;8.63;;
20144;SDS011;10233;50.814;6.590;2022-07-30T06:19:58;14.82;;;8.27;;
20144;SDS011;10233;50.814;6.590;2022-07-30T06:20:59;17.92;;;8.80;;
20144;SDS011;10233;50.814;6.590;2022-07-30T06:22:21;16.27;;;8.60;;
20144;SDS011;10233;50.814;6.590;2022-07-30T06:23:22;16.15;;;7.88;;
20144;SDS011;10233;50.814;6.590;2022-07-30T06:24:53;14.70;;;8.45;;
20144;SDS011;10233;50.814;6.590;2022-07-30T06:25:57;18.73;;;9.07;;
20144;SDS011;10233;50.814;6.590;2022-07-30T06:26:58;19.47;;;9.40;;